Time;durP1;ratioP1;P1;durP2;ratioP2;P2;SDS_P1;SDS_P2;PMS_P1;PMS_P2;Temp;Humidity;BMP_temperature;BMP_pressure;BME280_temperature;BME280_humidity;BME280_pressure;Samples;Min_cycle;Max_cycle;Signal;HPM_P1;HPM_P2
2021/08/23 00:00:36;;;;;;;;;8.00;6.33;;;;;;;;5140026;27;45477;-74
2021/08/23 00:03:02;;;;;;;;;8.00;8.00;;;;;;;;5140438;27;46146;-74
2021/08/23 00:05:28;;;;;;;;;8.33;8.33;;;;;;;;5140335;27;45527;-74
2021/08/23 00:07:53;;;;;;;;;9.00;8.67;;;;;;;;5140115;27;45250;-74
2021/08/23 00:10:19;;;;;;;;;9.67;8.67;;;;;;;;5140221;27;45555;-74
2021/08/23 00:12:45;;;;;;;;;6.00;6.00;;;;;;;;5139961;27;45378;-74
2021/08/23 00:15:16;;;;;;;;;8.33;8.33;;;;;;;;5141432;27;45216;-74
2021/08/23 00:17:44;;;;;;;;;7.67;7.67;;;;;;;;5140200;27;45256;-74
2021/08/23 00:20:13;;;;;;;;;7.33;7.33;;;;;;;;5140128;27;45286;-74
2021/08/23 00:22:51;;;;;;;;;8.33;8.33;;;;;;;;5147794;27;46754;-75
2021/08/23 00:25:20;;;;;;;;;6.00;6.00;;;;;;;;5143257;27;45520;-75
2021/08/23 00:27:45;;;;;;;;;8.00;8.00;;;;;;;;5143351;27;45284;-75
2021/08/23 00:30:12;;;;;;;;;9.00;8.00;;;;;;;;5143303;27;45653;-74
2021/08/23 00:32:37;;;;;;;;;11.33;10.33;;;;;;;;5143564;27;47140;-75
2021/08/23 00:35:03;;;;;;;;;8.00;8.00;;;;;;;;5143390;27;45568;-74
2021/08/23 00:37:28;;;;;;;;;7.33;7.33;;;;;;;;5143621;27;45420;-74
2021/08/23 00:39:53;;;;;;;;;5.67;5.67;;;;;;;;5143429;27;45881;-74
2021/08/23 00:42:19;;;;;;;;;8.00;7.67;;;;;;;;5142844;27;47730;-74
2021/08/23 00:44:44;;;;;;;;;9.00;9.00;;;;;;;;5143292;27;45328;-75
2021/08/23 00:47:10;;;;;;;;;7.33;7.33;;;;;;;;5143499;27;45273;-74
2021/08/23 00:49:38;;;;;;;;;9.00;9.00;;;;;;;;5143270;27;46585;-74
2021/08/23 00:52:04;;;;;;;;;7.00;7.00;;;;;;;;5143046;27;45865;-74
2021/08/23 00:54:30;;;;;;;;;9.33;9.00;;;;;;;;5143012;27;45327;-74
2021/08/23 00:56:55;;;;;;;;;7.00;7.00;;;;;;;;5145888;27;45466;-74
2021/08/23 00:59:25;;;;;;;;;9.00;9.00;;;;;;;;5165698;27;45420;-74
2021/08/23 01:01:57;;;;;;;;;7.33;7.33;;;;;;;;5146764;27;47679;-74
2021/08/23 01:04:26;;;;;;;;;7.33;7.00;;;;;;;;5146423;27;45344;-74
2021/08/23 01:06:52;;;;;;;;;7.00;7.00;;;;;;;;5146592;27;45194;-74
2021/08/23 01:09:20;;;;;;;;;7.00;7.00;;;;;;;;5165456;27;45247;-74
2021/08/23 01:11:49;;;;;;;;;8.33;7.33;;;;;;;;5146410;27;46316;-74
2021/08/23 01:14:14;;;;;;;;;9.67;7.33;;;;;;;;5146393;27;45484;-74
2021/08/23 01:16:40;;;;;;;;;4.00;4.00;;;;;;;;5146624;27;45298;-75
2021/08/23 01:19:05;;;;;;;;;7.67;7.67;;;;;;;;5146536;27;46166;-74
2021/08/23 01:21:31;;;;;;;;;8.67;8.67;;;;;;;;5146420;27;47695;-74
2021/08/23 01:23:57;;;;;;;;;7.00;7.00;;;;;;;;5145731;27;45308;-74
2021/08/23 01:26:28;;;;;;;;;8.00;8.00;;;;;;;;5146133;27;45293;-74
2021/08/23 01:29:03;;;;;;;;;10.00;8.33;;;;;;;;5145920;27;45489;-74
2021/08/23 01:31:47;;;;;;;;;7.00;7.00;;;;;;;;5145981;27;45845;-74
2021/08/23 01:34:12;;;;;;;;;6.67;6.67;;;;;;;;5165039;27;45313;-75
2021/08/23 01:36:38;;;;;;;;;9.33;9.33;;;;;;;;5146195;27;45393;-74
2021/08/23 01:39:04;;;;;;;;;10.00;9.00;;;;;;;;5145899;27;45227;-74
2021/08/23 01:41:29;;;;;;;;;10.33;9.00;;;;;;;;5145449;27;48309;-74
2021/08/23 01:43:55;;;;;;;;;7.33;7.33;;;;;;;;5164758;27;45283;-74
2021/08/23 01:46:20;;;;;;;;;12.00;10.67;;;;;;;;5145486;27;45376;-73
2021/08/23 01:48:48;;;;;;;;;9.00;9.00;;;;;;;;5146059;27;45803;-74
2021/08/23 01:51:13;;;;;;;;;9.33;8.67;;;;;;;;5145760;27;45674;-74
2021/08/23 01:53:40;;;;;;;;;7.67;7.33;;;;;;;;5145707;27;45239;-74
2021/08/23 01:56:16;;;;;;;;;8.00;8.00;;;;;;;;5145634;27;45268;-74
2021/08/23 01:58:41;;;;;;;;;9.67;8.00;;;;;;;;5145805;27;45706;-74
2021/08/23 02:01:07;;;;;;;;;8.67;8.67;;;;;;;;5145289;27;45915;-73
2021/08/23 02:03:32;;;;;;;;;6.33;6.33;;;;;;;;5145650;27;45646;-74
2021/08/23 02:05:57;;;;;;;;;9.00;9.00;;;;;;;;5145935;27;45825;-74
2021/08/23 02:08:23;;;;;;;;;8.00;7.67;;;;;;;;5144111;27;45476;-74
2021/08/23 02:10:49;;;;;;;;;8.00;8.00;;;;;;;;5145436;27;46133;-74
2021/08/23 02:13:14;;;;;;;;;7.67;6.00;;;;;;;;5145460;27;45291;-74
2021/08/23 02:15:40;;;;;;;;;10.00;9.00;;;;;;;;5145696;27;45375;-74
2021/08/23 02:18:08;;;;;;;;;6.33;6.33;;;;;;;;5164403;27;45479;-74
2021/08/23 02:20:33;;;;;;;;;9.67;7.00;;;;;;;;5144703;27;46024;-75
2021/08/23 02:23:01;;;;;;;;;9.00;9.00;;;;;;;;5141506;27;45156;-74
2021/08/23 02:25:27;;;;;;;;;8.00;7.33;;;;;;;;5141824;27;45329;-74
2021/08/23 02:27:53;;;;;;;;;7.33;6.33;;;;;;;;5141740;27;45324;-74
2021/08/23 02:30:21;;;;;;;;;7.33;7.33;;;;;;;;5136231;27;46371;-74
2021/08/23 02:33:07;;;;;;;;;7.67;6.00;;;;;;;;5124451;27;45242;-74
2021/08/23 02:35:33;;;;;;;;;6.00;5.67;;;;;;;;5123825;27;45285;-73
2021/08/23 02:38:01;;;;;;;;;9.33;7.33;;;;;;;;5124328;27;45796;-74
2021/08/23 02:40:29;;;;;;;;;8.67;7.67;;;;;;;;5123880;27;47108;-74
2021/08/23 02:42:55;;;;;;;;;8.33;7.00;;;;;;;;5124243;27;45410;-75
2021/08/23 02:45:26;;;;;;;;;7.33;7.33;;;;;;;;5124270;27;45346;-74
2021/08/23 02:47:52;;;;;;;;;7.00;6.00;;;;;;;;5124066;27;45374;-74
2021/08/23 02:50:28;;;;;;;;;9.00;9.00;;;;;;;;5123982;27;45518;-75
2021/08/23 02:52:53;;;;;;;;;6.33;5.67;;;;;;;;5123791;27;45350;-74
2021/08/23 02:55:22;;;;;;;;;6.67;5.67;;;;;;;;5142757;27;45260;-74
2021/08/23 02:57:47;;;;;;;;;8.00;8.00;;;;;;;;5123649;27;45456;-74
2021/08/23 03:00:15;;;;;;;;;8.00;6.33;;;;;;;;5122220;27;45530;-75
2021/08/23 03:02:52;;;;;;;;;7.00;6.33;;;;;;;;5123984;27;45645;-74
2021/08/23 03:05:17;;;;;;;;;8.67;8.67;;;;;;;;5124027;27;45327;-74
2021/08/23 03:07:53;;;;;;;;;7.00;6.00;;;;;;;;5123771;27;46123;-74
2021/08/23 03:10:19;;;;;;;;;8.67;8.00;;;;;;;;5123688;27;45578;-74
2021/08/23 03:12:45;;;;;;;;;6.67;6.67;;;;;;;;5123561;27;45318;-74
2021/08/23 03:15:13;;;;;;;;;8.33;8.33;;;;;;;;5123775;27;45300;-74
2021/08/23 03:17:38;;;;;;;;;8.33;8.33;;;;;;;;5123700;27;46829;-74
2021/08/23 03:20:04;;;;;;;;;10.00;9.33;;;;;;;;5123127;27;46903;-74
2021/08/23 03:22:29;;;;;;;;;12.33;9.33;;;;;;;;5125284;27;45298;-74
2021/08/23 03:24:55;;;;;;;;;9.00;9.00;;;;;;;;5140861;27;45443;-74
2021/08/23 03:27:21;;;;;;;;;8.67;8.67;;;;;;;;5140513;27;45281;-74
2021/08/23 03:29:50;;;;;;;;;10.00;9.33;;;;;;;;5140730;27;45948;-74
2021/08/23 03:32:19;;;;;;;;;9.67;8.67;;;;;;;;5140902;27;45339;-74
2021/08/23 03:34:53;;;;;;;;;11.00;10.00;;;;;;;;5140294;27;45175;-74
2021/08/23 03:37:32;;;;;;;;;9.33;9.33;;;;;;;;5141831;27;45292;-74
2021/08/23 03:40:00;;;;;;;;;9.00;8.00;;;;;;;;5123402;27;45985;-74
2021/08/23 03:42:28;;;;;;;;;7.00;6.67;;;;;;;;5140215;27;45486;-74
2021/08/23 03:44:53;;;;;;;;;8.33;8.33;;;;;;;;5140526;27;45308;-74
2021/08/23 03:47:19;;;;;;;;;8.33;8.00;;;;;;;;5141931;27;45346;-74
2021/08/23 03:49:46;;;;;;;;;9.33;8.00;;;;;;;;5140462;27;45322;-74
2021/08/23 03:52:27;;;;;;;;;8.67;8.00;;;;;;;;5140529;27;45402;-74
2021/08/23 03:55:03;;;;;;;;;9.33;9.33;;;;;;;;5140598;27;45272;-73
2021/08/23 03:57:32;;;;;;;;;10.00;9.00;;;;;;;;5140124;27;45706;-75
2021/08/23 03:59:58;;;;;;;;;7.33;7.33;;;;;;;;5140287;27;47163;-74
2021/08/23 04:02:32;;;;;;;;;7.33;7.33;;;;;;;;5140347;27;45383;-74
2021/08/23 04:05:02;;;;;;;;;8.67;8.67;;;;;;;;5140336;27;45298;-74
2021/08/23 04:07:32;;;;;;;;;9.00;9.00;;;;;;;;5122474;27;45838;-74
2021/08/23 04:09:58;;;;;;;;;7.67;7.33;;;;;;;;5140118;27;47347;-74
2021/08/23 04:12:23;;;;;;;;;8.67;8.67;;;;;;;;5139968;27;45372;-74
2021/08/23 04:14:50;;;;;;;;;12.00;9.33;;;;;;;;5140253;27;45361;-74
2021/08/23 04:17:15;;;;;;;;;12.00;9.67;;;;;;;;5139984;27;45437;-74
2021/08/23 04:19:41;;;;;;;;;6.33;6.33;;;;;;;;5139975;27;45821;-74
2021/08/23 04:22:06;;;;;;;;;9.33;7.67;;;;;;;;5141881;27;45424;-74
2021/08/23 04:24:32;;;;;;;;;9.33;7.67;;;;;;;;5162637;27;45231;-74
2021/08/23 04:27:06;;;;;;;;;13.67;13.00;;;;;;;;5161808;27;46817;-74
2021/08/23 04:29:32;;;;;;;;;8.67;7.67;;;;;;;;5142814;27;45759;-74
2021/08/23 04:31:57;;;;;;;;;10.33;10.00;;;;;;;;5146343;27;45198;-74
2021/08/23 04:34:23;;;;;;;;;9.33;9.33;;;;;;;;5147276;27;45295;-74
2021/08/23 04:36:48;;;;;;;;;9.00;7.67;;;;;;;;5146996;27;45668;-75
2021/08/23 04:39:15;;;;;;;;;11.00;11.00;;;;;;;;5147164;27;45771;-74
2021/08/23 04:41:44;;;;;;;;;8.67;8.67;;;;;;;;5146724;27;45293;-74
2021/08/23 04:44:09;;;;;;;;;6.67;6.67;;;;;;;;5147042;27;45261;-73
2021/08/23 04:46:44;;;;;;;;;11.00;11.00;;;;;;;;5146885;27;45523;-75
2021/08/23 04:49:37;;;;;;;;;9.00;8.00;;;;;;;;5165349;27;45345;-74
2021/08/23 04:52:05;;;;;;;;;12.00;11.00;;;;;;;;5146648;27;45458;-74
2021/08/23 04:54:30;;;;;;;;;8.67;8.67;;;;;;;;5146964;27;45321;-75
2021/08/23 04:57:04;;;;;;;;;11.67;9.67;;;;;;;;5146464;27;45724;-74
2021/08/23 04:59:30;;;;;;;;;11.00;9.33;;;;;;;;5146643;27;46515;-74
2021/08/23 05:02:14;;;;;;;;;10.00;10.00;;;;;;;;5164611;27;45490;-74
2021/08/23 05:04:43;;;;;;;;;13.67;10.00;;;;;;;;5146630;27;45390;-74
2021/08/23 05:07:08;;;;;;;;;10.67;10.00;;;;;;;;5146554;27;45742;-74
2021/08/23 05:09:39;;;;;;;;;11.33;11.33;;;;;;;;5145998;27;46915;-75
2021/08/23 05:12:04;;;;;;;;;9.67;9.67;;;;;;;;5145765;27;45314;-75
2021/08/23 05:14:30;;;;;;;;;11.00;11.00;;;;;;;;5146458;27;45302;-74
2021/08/23 05:16:55;;;;;;;;;9.67;9.67;;;;;;;;5146386;27;45681;-76
2021/08/23 05:19:23;;;;;;;;;11.00;11.00;;;;;;;;5164118;27;45399;-74
2021/08/23 05:21:52;;;;;;;;;10.33;10.33;;;;;;;;5146128;27;45320;-73
2021/08/23 05:24:17;;;;;;;;;9.33;9.33;;;;;;;;5146081;27;45335;-74
2021/08/23 05:26:49;;;;;;;;;8.67;8.00;;;;;;;;5146072;27;45454;-73
2021/08/23 05:29:14;;;;;;;;;12.67;12.67;;;;;;;;5145874;27;46920;-74
2021/08/23 05:31:40;;;;;;;;;12.00;12.00;;;;;;;;5146093;27;45206;-72
2021/08/23 05:34:05;;;;;;;;;11.00;11.00;;;;;;;;5146028;27;45730;-73
2021/08/23 05:36:31;;;;;;;;;10.33;10.00;;;;;;;;5146041;27;45576;-74
2021/08/23 05:38:56;;;;;;;;;10.00;9.00;;;;;;;;5165005;27;45632;-74
2021/08/23 05:41:21;;;;;;;;;11.67;11.67;;;;;;;;5163473;27;45367;-75
2021/08/23 05:43:47;;;;;;;;;9.00;9.00;;;;;;;;5164034;27;45981;-74
2021/08/23 05:46:15;;;;;;;;;11.00;11.00;;;;;;;;5145873;27;46792;-74
2021/08/23 05:48:41;;;;;;;;;12.33;12.33;;;;;;;;5145704;27;46790;-75
2021/08/23 05:51:06;;;;;;;;;11.67;11.67;;;;;;;;5145176;27;45413;-73
2021/08/23 05:53:31;;;;;;;;;10.33;9.67;;;;;;;;5145429;27;45317;-74
2021/08/23 05:55:57;;;;;;;;;10.00;10.00;;;;;;;;5145291;27;46285;-73
2021/08/23 05:58:22;;;;;;;;;13.00;11.67;;;;;;;;5164635;27;46538;-72
2021/08/23 06:00:48;;;;;;;;;15.33;14.00;;;;;;;;5145374;27;45258;-74
2021/08/23 06:03:13;;;;;;;;;13.00;12.00;;;;;;;;5163889;27;45388;-75
2021/08/23 06:05:38;;;;;;;;;13.33;13.33;;;;;;;;5145555;27;45353;-74
2021/08/23 06:08:06;;;;;;;;;14.67;14.67;;;;;;;;5145470;27;46392;-75
2021/08/23 06:10:31;;;;;;;;;15.67;14.67;;;;;;;;5145245;27;45590;-74
2021/08/23 06:12:57;;;;;;;;;14.67;13.33;;;;;;;;5144617;27;46530;-74
2021/08/23 06:15:22;;;;;;;;;16.67;16.67;;;;;;;;5144853;27;45521;-73
2021/08/23 06:17:47;;;;;;;;;14.33;14.00;;;;;;;;5145501;27;46381;-73
2021/08/23 06:20:13;;;;;;;;;18.00;18.00;;;;;;;;5164213;27;45325;-74
2021/08/23 06:22:38;;;;;;;;;16.33;15.00;;;;;;;;5164087;27;45323;-74
2021/08/23 06:25:07;;;;;;;;;17.00;17.00;;;;;;;;5164159;27;45296;-73
2021/08/23 06:27:32;;;;;;;;;13.67;13.33;;;;;;;;5163010;27;46286;-73
2021/08/23 06:29:58;;;;;;;;;20.33;18.00;;;;;;;;5144212;27;45406;-79
2021/08/23 06:32:23;;;;;;;;;23.00;20.33;;;;;;;;5163685;27;45348;-75
2021/08/23 06:34:48;;;;;;;;;15.00;14.33;;;;;;;;5144622;27;46838;-75
2021/08/23 06:37:15;;;;;;;;;18.67;18.33;;;;;;;;5163389;27;45311;-75
2021/08/23 06:39:40;;;;;;;;;19.67;19.00;;;;;;;;5148326;27;45455;-76
2021/08/23 06:42:06;;;;;;;;;20.67;19.67;;;;;;;;5144408;27;45285;-74
2021/08/23 06:44:31;;;;;;;;;21.00;21.00;;;;;;;;5143780;27;45312;-75
2021/08/23 06:46:57;;;;;;;;;23.67;22.33;;;;;;;;5144310;27;45548;-74
2021/08/23 06:49:22;;;;;;;;;21.67;21.33;;;;;;;;5143700;27;45492;-74
2021/08/23 06:51:47;;;;;;;;;22.67;22.33;;;;;;;;5162721;27;45907;-74
2021/08/23 06:54:15;;;;;;;;;21.67;20.67;;;;;;;;5161956;27;45389;-83
2021/08/23 06:56:42;;;;;;;;;23.33;22.67;;;;;;;;5142320;27;46577;-81
2021/08/23 06:59:10;;;;;;;;;22.67;21.67;;;;;;;;5143171;27;45395;-82
2021/08/23 07:01:36;;;;;;;;;20.33;17.00;;;;;;;;5141311;27;45354;-82
2021/08/23 07:04:02;;;;;;;;;21.33;17.33;;;;;;;;5140706;27;45375;-83
2021/08/23 07:06:27;;;;;;;;;24.00;21.00;;;;;;;;5161258;27;46014;-80
2021/08/23 07:08:52;;;;;;;;;19.67;19.33;;;;;;;;5163069;27;45296;-78
2021/08/23 07:11:18;;;;;;;;;21.67;21.33;;;;;;;;5164013;27;45462;-77
2021/08/23 07:13:44;;;;;;;;;26.67;24.00;;;;;;;;5144345;27;45771;-75
2021/08/23 07:16:09;;;;;;;;;22.33;22.33;;;;;;;;5163141;27;45332;-79
2021/08/23 07:18:35;;;;;;;;;23.00;22.00;;;;;;;;5163752;27;45348;-78
2021/08/23 07:21:00;;;;;;;;;19.00;17.33;;;;;;;;5161365;27;45372;-82
2021/08/23 07:23:25;;;;;;;;;21.67;21.67;;;;;;;;5160533;27;45222;-78
2021/08/23 07:25:57;;;;;;;;;19.33;19.33;;;;;;;;5159097;27;46200;-83
2021/08/23 07:28:22;;;;;;;;;23.00;22.00;;;;;;;;5140568;27;45670;-80
2021/08/23 07:30:47;;;;;;;;;19.00;19.00;;;;;;;;5159910;27;45466;-79
2021/08/23 07:36:01;;;;;;;;;19.00;18.00;;;;;;;;5160512;27;46590;-80
2021/08/23 07:38:26;;;;;;;;;22.00;21.67;;;;;;;;5141453;27;45289;-79
2021/08/23 07:40:52;;;;;;;;;17.67;17.00;;;;;;;;5159563;27;45212;-76
2021/08/23 07:43:17;;;;;;;;;20.00;20.00;;;;;;;;5160245;27;45418;-75
2021/08/23 07:45:42;;;;;;;;;22.00;20.67;;;;;;;;5160162;27;45389;-82
2021/08/23 07:48:13;;;;;;;;;18.00;16.67;;;;;;;;5160630;27;45324;-76
2021/08/23 07:50:38;;;;;;;;;19.33;18.33;;;;;;;;5133998;27;45451;-82
2021/08/23 07:53:04;;;;;;;;;19.00;17.33;;;;;;;;5157230;27;45466;-79
2021/08/23 07:55:30;;;;;;;;;17.33;15.33;;;;;;;;5141447;27;47941;-78
2021/08/23 07:57:55;;;;;;;;;15.33;13.67;;;;;;;;5159856;27;45297;-77
2021/08/23 08:00:22;;;;;;;;;18.67;15.67;;;;;;;;5160694;27;45364;-79
2021/08/23 08:02:48;;;;;;;;;19.67;18.00;;;;;;;;5141070;27;45528;-77
2021/08/23 08:05:13;;;;;;;;;15.67;13.33;;;;;;;;5159527;27;45279;-78
2021/08/23 08:07:39;;;;;;;;;20.67;17.00;;;;;;;;5160760;27;45323;-77
2021/08/23 08:10:05;;;;;;;;;16.00;15.00;;;;;;;;5160967;27;45320;-79
2021/08/23 08:12:30;;;;;;;;;18.00;17.00;;;;;;;;5160263;27;45613;-77
2021/08/23 08:14:56;;;;;;;;;8.33;7.00;;;;;;;;5160890;27;45973;-79
2021/08/23 08:17:22;;;;;;;;;15.00;15.00;;;;;;;;5161144;27;45752;-77
2021/08/23 08:19:47;;;;;;;;;17.00;16.33;;;;;;;;5160735;27;45740;-79
2021/08/23 08:22:13;;;;;;;;;16.75;15.75;;;;;;;;5108035;27;1452606;-77
2021/08/23 08:24:38;;;;;;;;;16.00;15.00;;;;;;;;5162297;27;46094;-77
2021/08/23 08:27:04;;;;;;;;;16.00;16.00;;;;;;;;5161836;27;45337;-77
2021/08/23 08:29:29;;;;;;;;;13.67;13.67;;;;;;;;5162273;27;45612;-76
2021/08/23 08:31:59;;;;;;;;;15.33;15.33;;;;;;;;5142761;27;45410;-78
2021/08/23 08:34:25;;;;;;;;;16.00;16.00;;;;;;;;5161721;27;45870;-78
2021/08/23 08:36:50;;;;;;;;;18.33;18.33;;;;;;;;5162070;27;45245;-76
2021/08/23 08:39:15;;;;;;;;;16.33;16.33;;;;;;;;5162314;27;45403;-79
2021/08/23 08:41:41;;;;;;;;;16.33;16.33;;;;;;;;5161263;27;45230;-79
2021/08/23 08:44:06;;;;;;;;;16.33;15.00;;;;;;;;5161778;27;46102;-81
2021/08/23 08:46:33;;;;;;;;;18.33;18.33;;;;;;;;5142035;27;45455;-82
2021/08/23 08:48:58;;;;;;;;;15.67;15.67;;;;;;;;5160010;27;45365;-83
2021/08/23 08:51:24;;;;;;;;;16.00;16.00;;;;;;;;5161623;27;45273;-81
2021/08/23 08:53:50;;;;;;;;;17.67;16.33;;;;;;;;5161744;27;45378;-80
2021/08/23 08:56:15;;;;;;;;;16.00;15.00;;;;;;;;5161421;27;45383;-80
2021/08/23 08:58:40;;;;;;;;;15.00;15.00;;;;;;;;5162023;27;46035;-79
2021/08/23 09:01:06;;;;;;;;;16.00;15.33;;;;;;;;5159082;27;45409;-81
2021/08/23 09:03:32;;;;;;;;;19.00;17.33;;;;;;;;5161959;27;46111;-83
2021/08/23 09:06:02;;;;;;;;;15.00;13.33;;;;;;;;5162012;27;45351;-79
2021/08/23 09:08:29;;;;;;;;;17.00;16.00;;;;;;;;5162058;27;45384;-79
2021/08/23 09:10:54;;;;;;;;;12.33;12.33;;;;;;;;5142591;27;47011;-79
2021/08/23 09:13:20;;;;;;;;;14.00;12.67;;;;;;;;5161116;27;45281;-80
2021/08/23 09:15:52;;;;;;;;;14.00;13.67;;;;;;;;5160999;27;45379;-80
2021/08/23 09:18:22;;;;;;;;;14.67;14.33;;;;;;;;5165029;27;45360;-80
2021/08/23 09:20:55;;;;;;;;;15.00;15.00;;;;;;;;5146304;27;46460;-79
2021/08/23 09:23:20;;;;;;;;;14.67;14.67;;;;;;;;5156783;27;45400;-80
2021/08/23 09:25:46;;;;;;;;;14.00;14.00;;;;;;;;5165265;27;45198;-81
2021/08/23 09:28:11;;;;;;;;;14.00;14.00;;;;;;;;5165866;27;45376;-80
2021/08/23 09:30:37;;;;;;;;;15.67;15.67;;;;;;;;5164878;27;45463;-80
2021/08/23 09:33:04;;;;;;;;;14.00;12.00;;;;;;;;5164763;27;45226;-80
2021/08/23 09:35:36;;;;;;;;;13.67;13.67;;;;;;;;5164040;27;45232;-80
2021/08/23 09:38:12;;;;;;;;;12.00;12.00;;;;;;;;5163682;27;45417;-80
2021/08/23 09:40:40;;;;;;;;;14.33;12.33;;;;;;;;5157368;27;45771;-81
2021/08/23 09:43:16;;;;;;;;;13.33;12.33;;;;;;;;5145067;27;48129;-79
2021/08/23 09:45:47;;;;;;;;;15.00;14.33;;;;;;;;5148984;27;45285;-79
2021/08/23 09:48:13;;;;;;;;;12.33;12.33;;;;;;;;5129515;27;45356;-77
2021/08/23 09:50:46;;;;;;;;;16.67;16.00;;;;;;;;5163556;27;45227;-81
2021/08/23 09:53:14;;;;;;;;;14.00;13.00;;;;;;;;5141724;27;46950;-78
2021/08/23 09:55:44;;;;;;;;;10.67;10.67;;;;;;;;5162871;27;45375;-80
2021/08/23 09:58:10;;;;;;;;;15.00;14.00;;;;;;;;5164793;27;45438;-80
2021/08/23 10:00:36;;;;;;;;;11.33;10.33;;;;;;;;5164217;27;45194;-80
2021/08/23 10:03:03;;;;;;;;;13.33;12.33;;;;;;;;5145585;27;47313;-80
2021/08/23 10:05:29;;;;;;;;;13.00;12.33;;;;;;;;5164339;27;45380;-80
2021/08/23 10:07:55;;;;;;;;;11.33;10.33;;;;;;;;5164925;27;45214;-76
2021/08/23 10:10:20;;;;;;;;;12.00;12.00;;;;;;;;5163921;27;45300;-76
2021/08/23 10:12:46;;;;;;;;;15.00;12.33;;;;;;;;5163617;27;45358;-75
2021/08/23 10:15:13;;;;;;;;;13.00;13.00;;;;;;;;5164470;27;45399;-77
2021/08/23 10:17:39;;;;;;;;;13.67;13.67;;;;;;;;5164476;27;45219;-74
2021/08/23 10:20:05;;;;;;;;;11.00;11.00;;;;;;;;5164389;27;45407;-79
2021/08/23 10:22:32;;;;;;;;;14.00;12.67;;;;;;;;5163782;27;46010;-78
2021/08/23 10:24:58;;;;;;;;;13.33;13.33;;;;;;;;5164183;27;45268;-80
2021/08/23 10:27:24;;;;;;;;;16.00;15.00;;;;;;;;5163461;27;45521;-82
2021/08/23 10:29:50;;;;;;;;;15.33;12.67;;;;;;;;5163507;27;45352;-81
2021/08/23 10:32:16;;;;;;;;;17.00;14.33;;;;;;;;5164314;27;45450;-77
2021/08/23 10:34:42;;;;;;;;;12.33;12.33;;;;;;;;5164072;27;45273;-84
2021/08/23 10:37:19;;;;;;;;;14.00;14.00;;;;;;;;5162859;27;45375;-82
2021/08/23 10:39:45;;;;;;;;;13.67;13.67;;;;;;;;5163394;27;45315;-82
2021/08/23 10:42:12;;;;;;;;;12.00;12.00;;;;;;;;5162708;27;45356;-79
2021/08/23 10:44:37;;;;;;;;;13.33;13.00;;;;;;;;5144941;27;45391;-77
2021/08/23 10:47:14;;;;;;;;;13.00;13.00;;;;;;;;5163866;27;45277;-78
2021/08/23 10:49:44;;;;;;;;;13.00;12.33;;;;;;;;5163695;27;45431;-76
2021/08/23 10:52:11;;;;;;;;;11.33;11.33;;;;;;;;5163355;27;45346;-77
2021/08/23 10:54:37;;;;;;;;;13.00;10.67;;;;;;;;5163713;27;45335;-77
2021/08/23 10:57:03;;;;;;;;;13.00;13.00;;;;;;;;5163172;27;45419;-81
2021/08/23 10:59:44;;;;;;;;;13.00;11.00;;;;;;;;5163162;27;45427;-79
2021/08/23 11:02:11;;;;;;;;;11.00;10.33;;;;;;;;5163516;27;45328;-79
2021/08/23 11:04:40;;;;;;;;;13.00;13.00;;;;;;;;5163453;27;45368;-79
2021/08/23 11:07:07;;;;;;;;;14.33;14.33;;;;;;;;5163436;27;45375;-81
2021/08/23 11:09:35;;;;;;;;;10.33;10.33;;;;;;;;5163431;27;45391;-76
2021/08/23 11:12:11;;;;;;;;;13.33;13.00;;;;;;;;5162811;27;45306;-77
2021/08/23 11:14:53;;;;;;;;;13.67;13.00;;;;;;;;5163487;27;45326;-72
2021/08/23 11:17:26;;;;;;;;;12.00;12.00;;;;;;;;5162980;27;45398;-75
2021/08/23 11:19:51;;;;;;;;;12.33;10.33;;;;;;;;5163622;27;45278;-75
2021/08/23 11:22:17;;;;;;;;;13.00;11.00;;;;;;;;5162974;27;45218;-75
2021/08/23 11:24:43;;;;;;;;;13.00;12.67;;;;;;;;5163302;27;45376;-75
2021/08/23 11:27:08;;;;;;;;;10.00;10.00;;;;;;;;5163160;27;45411;-75
2021/08/23 11:29:37;;;;;;;;;13.33;13.33;;;;;;;;5163229;27;45392;-76
2021/08/23 11:32:08;;;;;;;;;14.67;13.00;;;;;;;;5163270;27;45280;-74
2021/08/23 11:34:33;;;;;;;;;13.67;13.00;;;;;;;;5163193;27;45296;-75
2021/08/23 11:37:03;;;;;;;;;7.00;7.00;;;;;;;;5163234;27;45910;-74
2021/08/23 11:39:29;;;;;;;;;13.00;13.00;;;;;;;;5162943;27;45295;-75
2021/08/23 11:41:55;;;;;;;;;13.00;13.00;;;;;;;;5162443;27;45245;-76
2021/08/23 11:44:21;;;;;;;;;12.00;12.00;;;;;;;;5163135;27;45256;-75
2021/08/23 11:46:53;;;;;;;;;15.00;13.67;;;;;;;;5162968;27;45447;-77
2021/08/23 11:49:26;;;;;;;;;12.67;12.33;;;;;;;;5143994;27;45968;-76
2021/08/23 11:51:51;;;;;;;;;13.00;11.33;;;;;;;;5162033;27;45278;-74
2021/08/23 11:54:17;;;;;;;;;11.00;11.00;;;;;;;;5161074;27;45286;-75
2021/08/23 11:56:42;;;;;;;;;11.00;11.00;;;;;;;;5161767;27;45209;-75
2021/08/23 11:59:12;;;;;;;;;15.00;13.67;;;;;;;;5161463;27;45197;-74
2021/08/23 12:01:37;;;;;;;;;10.33;9.33;;;;;;;;5142608;27;47092;-75
2021/08/23 12:04:03;;;;;;;;;13.00;11.33;;;;;;;;5161631;27;45367;-75
2021/08/23 12:06:35;;;;;;;;;13.33;13.33;;;;;;;;5161905;27;45316;-76
2021/08/23 12:09:01;;;;;;;;;14.67;13.67;;;;;;;;5144016;27;45850;-76
2021/08/23 12:11:26;;;;;;;;;13.00;12.67;;;;;;;;5140443;27;46772;-75
2021/08/23 12:13:52;;;;;;;;;11.00;10.00;;;;;;;;5162362;27;45154;-76
2021/08/23 12:16:18;;;;;;;;;12.33;12.33;;;;;;;;5162960;27;45332;-77
2021/08/23 12:18:45;;;;;;;;;11.33;10.00;;;;;;;;5158663;27;45338;-74
2021/08/23 12:21:12;;;;;;;;;11.67;11.67;;;;;;;;5162426;27;45391;-74
2021/08/23 12:23:47;;;;;;;;;10.00;10.00;;;;;;;;5162266;27;45207;-74
2021/08/23 12:26:15;;;;;;;;;13.67;13.00;;;;;;;;5162443;27;45273;-75
2021/08/23 12:28:50;;;;;;;;;16.67;15.33;;;;;;;;5143388;27;45250;-74
2021/08/23 12:31:16;;;;;;;;;13.33;12.67;;;;;;;;5143105;27;46234;-74
2021/08/23 12:33:41;;;;;;;;;15.00;13.67;;;;;;;;5162367;27;45207;-74
2021/08/23 12:36:07;;;;;;;;;12.00;11.67;;;;;;;;5143623;27;45280;-74
2021/08/23 12:38:32;;;;;;;;;14.33;14.33;;;;;;;;5157269;27;45384;-77
2021/08/23 12:40:57;;;;;;;;;16.67;15.67;;;;;;;;5131270;27;45344;-77
2021/08/23 12:43:25;;;;;;;;;13.33;13.33;;;;;;;;5133565;27;45504;-75
2021/08/23 12:45:51;;;;;;;;;15.00;15.00;;;;;;;;5123387;27;45380;-76
2021/08/23 12:48:18;;;;;;;;;15.00;15.00;;;;;;;;5123973;27;45446;-76
2021/08/23 12:50:44;;;;;;;;;13.67;12.67;;;;;;;;5123351;27;45676;-75
2021/08/23 12:53:09;;;;;;;;;16.00;15.00;;;;;;;;5125416;27;45256;-74
2021/08/23 12:55:35;;;;;;;;;17.67;17.33;;;;;;;;5123585;27;45517;-75
2021/08/23 12:58:00;;;;;;;;;15.33;14.00;;;;;;;;5115974;27;45506;-75
2021/08/23 13:00:25;;;;;;;;;13.67;13.67;;;;;;;;5144688;27;45212;-73
2021/08/23 13:02:51;;;;;;;;;14.00;13.67;;;;;;;;5144859;27;45231;-74
2021/08/23 13:05:19;;;;;;;;;15.00;14.67;;;;;;;;5119228;27;45241;-73
2021/08/23 13:07:45;;;;;;;;;12.67;12.67;;;;;;;;5115369;27;46415;-73
2021/08/23 13:10:10;;;;;;;;;14.00;12.00;;;;;;;;5124335;27;45761;-73
2021/08/23 13:12:35;;;;;;;;;13.33;12.33;;;;;;;;5137699;27;45292;-73
2021/08/23 13:15:01;;;;;;;;;15.00;13.33;;;;;;;;5113834;27;45330;-73
2021/08/23 13:17:27;;;;;;;;;13.00;13.00;;;;;;;;5114950;27;45372;-74
2021/08/23 13:19:54;;;;;;;;;15.33;14.33;;;;;;;;5114247;27;45331;-76
2021/08/23 13:22:20;;;;;;;;;16.00;14.00;;;;;;;;5118803;27;45259;-74
2021/08/23 13:24:45;;;;;;;;;15.00;13.00;;;;;;;;5147137;27;45588;-75
2021/08/23 13:27:11;;;;;;;;;15.67;15.67;;;;;;;;5145972;27;45319;-75
2021/08/23 13:29:36;;;;;;;;;17.00;16.67;;;;;;;;5144388;27;46008;-74
2021/08/23 13:32:01;;;;;;;;;19.00;19.00;;;;;;;;5144864;27;45326;-74
2021/08/23 13:34:27;;;;;;;;;18.00;18.00;;;;;;;;5164004;27;45976;-73
2021/08/23 13:36:52;;;;;;;;;17.33;16.67;;;;;;;;5143497;27;45421;-73
2021/08/23 13:39:18;;;;;;;;;20.00;19.67;;;;;;;;5145337;27;45358;-73
2021/08/23 13:41:43;;;;;;;;;22.00;19.33;;;;;;;;5163657;27;45320;-74
2021/08/23 13:44:08;;;;;;;;;21.00;19.00;;;;;;;;5145363;27;45336;-73
2021/08/23 13:46:34;;;;;;;;;19.33;18.67;;;;;;;;5145025;27;46778;-73
2021/08/23 13:48:59;;;;;;;;;20.67;20.67;;;;;;;;5163207;27;46456;-73
2021/08/23 13:51:24;;;;;;;;;21.33;20.00;;;;;;;;5144818;27;45389;-73
2021/08/23 13:53:52;;;;;;;;;21.33;20.00;;;;;;;;5163370;27;45280;-74
2021/08/23 13:56:23;;;;;;;;;24.00;21.00;;;;;;;;5144917;27;47094;-74
2021/08/23 13:58:50;;;;;;;;;18.33;18.33;;;;;;;;5142530;27;46761;-73
2021/08/23 14:01:16;;;;;;;;;23.00;22.67;;;;;;;;5162148;27;45375;-74
2021/08/23 14:03:46;;;;;;;;;20.00;20.00;;;;;;;;5145135;27;45729;-74
2021/08/23 14:06:11;;;;;;;;;19.33;18.33;;;;;;;;5146492;27;46877;-75
2021/08/23 14:08:37;;;;;;;;;20.33;20.00;;;;;;;;5144818;27;45667;-73
2021/08/23 14:11:03;;;;;;;;;22.00;21.33;;;;;;;;5144722;27;45357;-74
2021/08/23 14:13:28;;;;;;;;;26.00;20.67;;;;;;;;5142222;27;45296;-73
2021/08/23 14:15:54;;;;;;;;;26.00;23.00;;;;;;;;5145230;27;45504;-74
2021/08/23 14:18:19;;;;;;;;;29.67;28.67;;;;;;;;5163505;27;45472;-77
2021/08/23 14:20:44;;;;;;;;;27.00;25.33;;;;;;;;5164008;27;45270;-76
2021/08/23 14:23:10;;;;;;;;;27.00;27.00;;;;;;;;5163469;27;45351;-77
2021/08/23 14:25:35;;;;;;;;;29.67;27.00;;;;;;;;5146856;27;45652;-78
2021/08/23 14:28:00;;;;;;;;;31.00;29.33;;;;;;;;5126656;27;47542;-78